Time;durP1;ratioP1;P1;durP2;ratioP2;P2;SDS_P1;SDS_P2;PMS_P1;PMS_P2;Temp;Humidity;BMP_temperature;BMP_pressure;BME280_temperature;BME280_humidity;BME280_pressure;Samples;Min_cycle;Max_cycle;Signal;HPM_P1;HPM_P2
2022/03/29 00:00:58;;;;;;;;;;;7.70;99.90;;;6.21;100.00;101228.13;2568164;30;138898;-41
2022/03/29 00:03:26;;;;;;;;;;;7.70;99.90;;;6.20;100.00;101231.88;2567142;30;137821;-40
2022/03/29 00:05:54;;;;;;;;;;;7.70;99.90;;;6.19;100.00;101224.75;2567810;30;137477;-41
2022/03/29 00:08:22;;;;;;;;;;;7.70;99.90;;;6.17;100.00;101224.94;2568793;30;137291;-42
2022/03/29 00:10:49;;;;;;;;;;;7.70;99.90;;;6.14;100.00;101221.72;2567183;30;138228;-41
2022/03/29 00:13:17;;;;;;;;;;;7.70;99.90;;;6.08;100.00;101214.28;2567508;30;137161;-41
2022/03/29 00:15:45;;;;;;;;;;;7.60;99.90;;;6.09;100.00;101214.09;2567221;30;139409;-41
2022/03/29 00:18:12;;;;;;;;;;;7.60;99.90;;;6.07;100.00;101210.72;2568141;30;137037;-41
2022/03/29 00:20:44;;;;;;;;;;;7.60;99.90;;;6.05;100.00;101201.94;2567787;30;138820;-41
2022/03/29 00:23:11;;;;;;;;;;;7.60;99.90;;;6.06;100.00;101209.03;2567502;30;137097;-41
2022/03/29 00:25:39;;;;;;;;;;;7.60;99.90;;;6.04;100.00;101197.53;2566220;30;138747;-41
2022/03/29 00:28:06;;;;;;;;;;;7.60;99.90;;;6.00;100.00;101205.16;2568547;30;136851;-41
2022/03/29 00:30:37;;;;;;;;;;;7.50;99.90;;;5.97;100.00;101202.78;2568570;30;139484;-41
2022/03/29 00:33:05;;;;;;;;;;;7.50;99.90;;;5.93;100.00;101198.72;2568341;30;137133;-41
2022/03/29 00:35:32;;;;;;;;;;;7.50;99.90;;;5.93;100.00;101197.88;2568257;30;137907;-41
2022/03/29 00:38:02;;;;;;;;;;;7.50;99.90;;;5.88;100.00;101193.84;2565757;30;136884;-41
2022/03/29 00:40:30;;;;;;;;;;;7.40;99.90;;;5.87;100.00;101189.44;2568159;30;139364;-40
2022/03/29 00:42:57;;;;;;;;;;;7.40;99.90;;;5.85;100.00;101196.03;2568753;30;137116;-41
2022/03/29 00:45:25;;;;;;;;;;;7.40;99.90;;;5.83;100.00;101198.91;2567440;30;137138;-40
2022/03/29 00:47:52;;;;;;;;;;;7.40;99.90;;;5.79;100.00;101188.59;2568362;30;136939;-40
2022/03/29 00:50:20;;;;;;;;;;;7.30;99.90;;;5.75;100.00;101188.09;2567871;30;138455;-40
2022/03/29 00:52:48;;;;;;;;;;;7.30;99.90;;;5.72;100.00;101185.72;2568304;30;138019;-41
2022/03/29 00:55:15;;;;;;;;;;;7.30;99.90;;;5.69;100.00;101186.06;2565968;30;139134;-41
2022/03/29 00:57:46;;;;;;;;;;;7.20;99.90;;;5.66;100.00;101181.00;2567309;30;137944;-41
2022/03/29 01:00:15;;;;;;;;;;;7.20;99.90;;;5.66;100.00;101176.41;2567082;30;138297;-40
2022/03/29 01:02:44;;;;;;;;;;;7.20;99.90;;;5.63;100.00;101174.06;2568521;30;137897;-41
2022/03/29 01:05:12;;;;;;;;;;;7.20;99.90;;;5.65;100.00;101172.03;2568438;30;138340;-40
2022/03/29 01:07:40;;;;;;;;;;;7.20;99.90;;;5.64;100.00;101173.03;2569054;30;136840;-41
2022/03/29 01:10:08;;;;;;;;;;;7.20;99.90;;;5.65;100.00;101163.06;2568001;30;139469;-41
2022/03/29 01:12:36;;;;;;;;;;;7.20;99.90;;;5.66;100.00;101164.75;2567789;30;136734;-40
2022/03/29 01:15:09;;;;;;;;;;;7.20;99.90;;;5.66;100.00;101167.47;2568337;30;137211;-41
2022/03/29 01:17:40;;;;;;;;;;;7.20;99.90;;;5.52;100.00;101142.78;2570589;30;138018;-42
2022/03/29 01:20:10;;;;;;;;;;;7.20;99.90;;;5.63;100.00;101165.09;2569276;30;138419;-40
2022/03/29 01:22:42;;;;;;;;;;;7.20;99.90;;;5.61;100.00;101151.72;2567403;30;137786;-42
2022/03/29 01:25:14;;;;;;;;;;;7.10;99.90;;;5.60;100.00;101156.31;2567559;30;138147;-42
2022/03/29 01:27:44;;;;;;;;;;;7.10;99.90;;;5.56;100.00;101146.00;2568461;30;137796;-41
2022/03/29 01:30:13;;;;;;;;;;;7.10;99.90;;;5.56;100.00;101144.13;2570030;30;138378;-42
2022/03/29 01:32:44;;;;;;;;;;;7.10;99.90;;;5.55;100.00;101144.31;2569792;30;137253;-44
2022/03/29 01:35:13;;;;;;;;;;;7.10;99.90;;;5.54;100.00;101143.44;2570761;30;138239;-42
2022/03/29 01:37:40;;;;;;;;;;;7.10;99.90;;;5.54;100.00;101139.91;2569881;30;137774;-42
2022/03/29 01:40:13;;;;;;;;;;;7.10;99.90;;;5.55;100.00;101144.31;2571777;30;137437;-42
2022/03/29 01:42:50;;;;;;;;;;;7.10;99.90;;;5.53;100.00;101141.75;2570347;30;136678;-42
2022/03/29 01:45:20;;;;;;;;;;;7.10;99.90;;;5.52;100.00;101142.78;2565615;30;138142;-41
2022/03/29 01:47:48;;;;;;;;;;;7.00;99.90;;;5.50;100.00;101144.81;2567353;30;137529;-43
2022/03/29 01:50:16;;;;;;;;;;;7.10;99.90;;;5.50;100.00;101143.97;2571259;30;137911;-42
2022/03/29 01:52:45;;;;;;;;;;;7.00;99.90;;;5.46;100.00;101138.06;2567473;30;137529;-42
2022/03/29 01:55:16;;;;;;;;;;;7.00;99.90;;;5.44;100.00;101131.97;2569452;30;138560;-41
2022/03/29 01:57:44;;;;;;;;;;;7.00;99.90;;;5.44;100.00;101126.56;2566326;30;138400;-42
2022/03/29 02:00:31;;;;;;;;;;;7.00;99.90;;;5.39;100.00;101115.41;2567069;30;139702;-41
2022/03/29 02:03:03;;;;;;;;;;;7.00;99.90;;;5.43;100.00;101128.41;2570668;30;136972;-42
2022/03/29 02:05:32;;;;;;;;;;;7.00;99.90;;;5.44;100.00;101118.44;2570006;30;138544;-43
2022/03/29 02:08:00;;;;;;;;;;;7.00;99.90;;;5.44;100.00;101115.72;2568699;30;136829;-43
2022/03/29 02:10:29;;;;;;;;;;;7.00;99.90;;;5.44;100.00;101110.31;2565555;30;137740;-42
2022/03/29 02:12:56;;;;;;;;;;;7.00;99.90;;;5.45;100.00;101107.44;2569679;30;137716;-41
2022/03/29 02:15:24;;;;;;;;;;;7.00;99.90;;;5.43;100.00;101100.50;2568822;30;138224;-44
2022/03/29 02:17:52;;;;;;;;;;;7.00;99.90;;;5.46;100.00;101102.88;2570106;30;137007;-44
2022/03/29 02:20:22;;;;;;;;;;;7.00;99.90;;;5.47;100.00;101104.56;2569557;30;138273;-41
2022/03/29 02:22:50;;;;;;;;;;;7.00;99.90;;;5.46;100.00;101106.44;2570675;30;136829;-42
2022/03/29 02:25:17;;;;;;;;;;;7.00;99.90;;;5.42;100.00;101098.81;2570286;30;137346;-42
2022/03/29 02:27:45;;;;;;;;;;;7.00;99.90;;;5.44;100.00;101096.78;2567745;30;137306;-41
2022/03/29 02:30:15;;;;;;;;;;;7.00;99.90;;;5.45;100.00;101093.91;2567932;30;138132;-41
2022/03/29 02:32:44;;;;;;;;;;;7.00;99.90;;;5.47;100.00;101091.03;2570208;30;137240;-43
2022/03/29 02:35:12;;;;;;;;;;;7.00;99.90;;;5.52;100.00;101087.81;2569260;30;137798;-42
2022/03/29 02:37:40;;;;;;;;;;;7.00;99.90;;;5.51;100.00;101075.28;2570405;30;137090;-42
2022/03/29 02:40:09;;;;;;;;;;;7.10;99.90;;;5.57;100.00;101082.72;2570464;30;138199;-42
2022/03/29 02:42:55;;;;;;;;;;;7.10;99.90;;;5.58;100.00;101090.69;2569234;30;137591;-42
2022/03/29 02:45:25;;;;;;;;;;;7.10;99.90;;;5.57;100.00;101074.59;2568449;30;138321;-42
2022/03/29 02:47:54;;;;;;;;;;;7.10;99.90;;;5.57;100.00;101075.47;2569356;30;137843;-41
2022/03/29 02:50:23;;;;;;;;;;;7.10;99.90;;;5.61;100.00;101068.69;2568468;30;137365;-42
2022/03/29 02:52:53;;;;;;;;;;;7.10;99.90;;;5.61;100.00;101059.69;2567095;30;138074;-42
2022/03/29 02:55:23;;;;;;;;;;;7.10;99.90;;;5.62;100.00;101058.69;2570882;30;137314;-42
2022/03/29 02:57:51;;;;;;;;;;;7.20;99.90;;;5.63;100.00;101059.53;2571447;30;138635;-42
2022/03/29 03:00:20;;;;;;;;;;;7.20;99.90;;;5.65;100.00;101052.91;2569060;30;139221;-42
2022/03/29 03:02:50;;;;;;;;;;;7.20;99.90;;;5.63;100.00;101046.81;2568365;30;137687;-42
2022/03/29 03:05:19;;;;;;;;;;;7.20;99.90;;;5.70;100.00;101045.13;2566751;30;137972;-42
2022/03/29 03:07:47;;;;;;;;;;;7.20;99.90;;;5.71;100.00;101048.66;2569317;30;137157;-42
2022/03/29 03:10:15;;;;;;;;;;;7.30;99.90;;;5.72;100.00;101045.81;2568101;30;137272;-42
2022/03/29 03:12:45;;;;;;;;;;;7.30;99.90;;;5.81;100.00;101048.47;2567444;30;137613;-42
2022/03/29 03:15:16;;;;;;;;;;;7.30;99.90;;;5.80;100.00;101052.19;2571459;30;138352;-42
2022/03/29 03:17:44;;;;;;;;;;;7.30;99.90;;;5.82;100.00;101044.75;2569094;30;137021;-42
2022/03/29 03:20:12;;;;;;;;;;;7.30;99.90;;;5.84;100.00;101040.00;2568351;30;138348;-42
2022/03/29 03:22:41;;;;;;;;;;;7.30;99.90;;;5.84;100.00;101043.56;2570170;30;136995;-42
2022/03/29 03:25:09;;;;;;;;;;;7.30;99.90;;;5.80;100.00;101031.34;2569035;30;137225;-42
2022/03/29 03:27:40;;;;;;;;;;;7.40;99.90;;;5.88;100.00;101042.19;2571404;30;137004;-42
2022/03/29 03:30:12;;;;;;;;;;;7.40;99.90;;;5.94;100.00;101034.38;2569482;30;139094;-42
2022/03/29 03:32:41;;;;;;;;;;;7.40;99.90;;;5.93;100.00;101038.91;2569429;30;137180;-42
2022/03/29 03:35:10;;;;;;;;;;;7.40;99.90;;;5.95;100.00;101036.03;2571794;30;137303;-42
2022/03/29 03:37:38;;;;;;;;;;;7.40;99.90;;;5.98;100.00;101033.84;2569778;30;136925;-42
2022/03/29 03:40:07;;;;;;;;;;;7.40;99.90;;;6.00;100.00;101028.22;2570338;30;137522;-42
2022/03/29 03:42:37;;;;;;;;;;;7.50;99.90;;;6.02;100.00;101032.50;2570809;30;137103;-41
2022/03/29 03:45:06;;;;;;;;;;;7.50;99.90;;;6.04;100.00;101032.28;2568515;30;137386;-42
2022/03/29 03:47:34;;;;;;;;;;;7.50;99.90;;;6.14;100.00;101023.94;2569285;30;137187;-42
2022/03/29 03:50:04;;;;;;;;;;;7.60;99.90;;;6.18;100.00;101028.84;2570070;30;139248;-42
2022/03/29 03:52:31;;;;;;;;;;;7.60;99.90;;;6.24;100.00;101027.31;2568481;30;138587;-41
2022/03/29 03:54:59;;;;;;;;;;;7.70;99.90;;;6.30;100.00;101020.28;2569627;30;137123;-42
2022/03/29 03:57:27;;;;;;;;;;;7.70;99.90;;;6.27;100.00;101016.09;2569410;30;137209;-42
2022/03/29 03:59:56;;;;;;;;;;;7.70;99.90;;;6.26;100.00;101013.56;2568623;30;138159;-42
2022/03/29 04:02:24;;;;;;;;;;;7.70;99.90;;;6.27;100.00;101007.97;2570285;30;137093;-42
2022/03/29 04:04:51;;;;;;;;;;;7.70;99.90;;;6.27;100.00;101001.69;2570735;30;137983;-42
2022/03/29 04:07:19;;;;;;;;;;;7.70;99.90;;;6.29;100.00;100999.66;2569415;30;137069;-43
2022/03/29 04:09:46;;;;;;;;;;;7.70;99.90;;;6.30;100.00;100998.63;2567451;30;137276;-42
2022/03/29 04:12:14;;;;;;;;;;;7.80;99.90;;;6.30;100.00;100993.19;2569386;30;137046;-42
2022/03/29 04:14:41;;;;;;;;;;;7.80;99.90;;;6.40;100.00;100993.81;2568818;30;137307;-42
2022/03/29 04:17:11;;;;;;;;;;;7.80;99.90;;;6.38;100.00;100995.00;2568229;30;136718;-42
2022/03/29 04:19:39;;;;;;;;;;;7.80;99.90;;;6.51;100.00;100986.28;2566799;30;139155;-42
2022/03/29 04:22:06;;;;;;;;;;;8.00;99.90;;;6.52;100.00;100982.53;2571115;30;137013;-43
2022/03/29 04:24:34;;;;;;;;;;;8.00;99.90;;;6.48;100.00;100979.34;2568449;30;138375;-42
2022/03/29 04:27:05;;;;;;;;;;;7.90;99.90;;;6.48;100.00;100982.06;2569135;30;137846;-42
2022/03/29 04:29:32;;;;;;;;;;;8.00;99.90;;;6.47;100.00;100981.22;2569225;30;139153;-42
2022/03/29 04:31:59;;;;;;;;;;;7.90;99.90;;;6.40;100.00;100972.13;2565853;30;137050;-42
2022/03/29 04:34:27;;;;;;;;;;;7.90;99.90;;;6.37;100.00;100969.78;2568901;30;139093;-42
2022/03/29 04:36:55;;;;;;;;;;;7.90;99.90;;;6.36;100.00;100961.84;2569620;30;136953;-42
2022/03/29 04:39:22;;;;;;;;;;;7.80;99.90;;;6.35;100.00;100960.97;2569234;30;138409;-43
2022/03/29 04:41:49;;;;;;;;;;;7.80;99.90;;;6.36;100.00;100959.94;2571913;30;137425;-43
2022/03/29 04:44:35;;;;;;;;;;;7.80;99.90;;;6.38;100.00;100955.22;2569392;30;137831;-41
2022/03/29 04:47:04;;;;;;;;;;;7.80;99.90;;;6.48;100.00;100960.38;2571033;30;137065;-42
2022/03/29 04:49:31;;;;;;;;;;;7.90;99.90;;;6.42;100.00;100958.38;2567749;30;138879;-41
2022/03/29 04:51:59;;;;;;;;;;;7.90;99.90;;;6.40;100.00;100958.59;2569891;30;137014;-41
2022/03/29 04:54:27;;;;;;;;;;;7.90;99.90;;;6.38;100.00;100955.22;2569002;30;137119;-42
2022/03/29 04:56:55;;;;;;;;;;;7.90;99.90;;;6.40;100.00;100950.47;2569379;30;137453;-42
2022/03/29 04:59:22;;;;;;;;;;;7.90;99.90;;;6.32;100.00;100948.66;2571482;30;138296;-41
2022/03/29 05:01:50;;;;;;;;;;;7.80;99.90;;;6.27;100.00;100947.50;2567666;30;137598;-42
2022/03/29 05:04:17;;;;;;;;;;;7.80;99.90;;;6.29;100.00;100949.00;2571059;30;137866;-42
2022/03/29 05:06:45;;;;;;;;;;;7.80;99.90;;;6.23;100.00;100944.28;2571134;30;136679;-41
2022/03/29 05:09:12;;;;;;;;;;;7.70;99.90;;;6.20;100.00;100944.66;2567344;30;138481;-43
2022/03/29 05:11:40;;;;;;;;;;;7.70;99.90;;;6.16;100.00;100940.63;2570801;30;137140;-42
2022/03/29 05:14:07;;;;;;;;;;;7.70;99.90;;;6.12;100.00;100939.31;2569726;30;137402;-42
2022/03/29 05:16:34;;;;;;;;;;;7.70;99.90;;;6.08;100.00;100944.22;2569824;30;137127;-44
2022/03/29 05:19:02;;;;;;;;;;;7.60;99.90;;;6.13;100.00;100939.16;2569916;30;138200;-42
2022/03/29 05:21:30;;;;;;;;;;;7.60;99.90;;;6.11;100.00;100933.06;2569717;30;136841;-42
2022/03/29 05:23:57;;;;;;;;;;;7.60;99.90;;;6.09;100.00;100936.97;2570952;30;138437;-42
2022/03/29 05:26:26;;;;;;;;;;;7.60;99.90;;;6.12;100.00;100937.47;2567966;30;137647;-41
2022/03/29 05:28:53;;;;;;;;;;;7.60;99.90;;;6.07;100.00;100939.00;2569146;30;138190;-42
2022/03/29 05:31:21;;;;;;;;;;;7.50;99.90;;;5.98;100.00;100935.47;2569665;30;137001;-42
2022/03/29 05:33:48;;;;;;;;;;;7.50;99.90;;;5.97;100.00;100939.22;2570658;30;138394;-42
2022/03/29 05:36:16;;;;;;;;;;;7.50;99.90;;;5.98;100.00;100935.47;2570161;30;137714;-42
2022/03/29 05:38:49;;;;;;;;;;;7.50;99.90;;;5.95;100.00;100939.38;2569094;30;138305;-42
2022/03/29 05:41:21;;;;;;;;;;;7.50;99.90;;;5.93;100.00;100938.72;2569746;30;137098;-42
2022/03/29 05:43:49;;;;;;;;;;;7.40;99.90;;;5.92;100.00;100936.19;2569513;30;138483;-43
2022/03/29 05:49:03;;;;;;;;;;;7.40;99.90;;;6.07;100.00;100939.84;2569487;30;138236;-41
2022/03/29 05:51:31;;;;;;;;;;;7.50;99.90;;;6.04;100.00;100932.94;2568252;30;137686;-45
2022/03/29 05:54:01;;;;;;;;;;;7.50;99.90;;;6.05;100.00;100925.63;2570174;30;137341;-41
2022/03/29 05:56:28;;;;;;;;;;;7.50;99.90;;;6.15;100.00;100931.69;2570121;30;137015;-42
2022/03/29 05:58:56;;;;;;;;;;;7.60;99.90;;;6.21;100.00;100931.97;2570797;30;138650;-42
2022/03/29 06:01:24;;;;;;;;;;;7.60;99.90;;;6.16;100.00;100930.66;2567968;30;137611;-41
2022/03/29 06:03:51;;;;;;;;;;;7.60;99.90;;;6.21;100.00;100931.97;2568655;30;137156;-42
2022/03/29 06:06:19;;;;;;;;;;;7.70;99.90;;;6.32;100.00;100934.25;2570985;30;136697;-41
2022/03/29 06:08:46;;;;;;;;;;;7.70;99.90;;;6.34;100.00;100934.91;2570084;30;138305;-41
2022/03/29 06:11:14;;;;;;;;;;;7.80;99.90;;;6.43;100.00;100938.38;2569143;30;136759;-42
2022/03/29 06:13:42;;;;;;;;;;;7.90;99.90;;;6.41;100.00;100944.00;2570353;30;139313;-42
2022/03/29 06:16:09;;;;;;;;;;;7.90;99.90;;;6.43;100.00;100950.09;2570150;30;137350;-41
2022/03/29 06:18:37;;;;;;;;;;;7.90;99.90;;;6.53;100.00;100948.97;2568867;30;139024;-42
2022/03/29 06:21:04;;;;;;;;;;;7.90;99.90;;;6.53;100.00;100949.84;2568470;30;136955;-42
2022/03/29 06:23:34;;;;;;;;;;;8.00;99.90;;;6.52;100.00;100952.72;2567481;30;139693;-41
2022/03/29 06:26:02;;;;;;;;;;;8.00;99.90;;;6.66;100.00;100953.78;2566536;30;137490;-42
2022/03/29 06:28:30;;;;;;;;;;;8.00;99.90;;;6.67;100.00;100955.47;2569751;30;139656;-41
2022/03/29 06:30:57;;;;;;;;;;;8.10;99.90;;;6.71;100.00;100952.22;2570252;30;136938;-41
2022/03/29 06:33:26;;;;;;;;;;;8.10;99.90;;;6.74;100.00;100951.84;2565968;30;138387;-41
2022/03/29 06:35:53;;;;;;;;;;;8.20;99.90;;;6.76;100.00;100966.06;2569014;30;137260;-42
2022/03/29 06:38:22;;;;;;;;;;;8.20;99.90;;;6.79;100.00;100961.28;2568764;30;138503;-42
2022/03/29 06:40:50;;;;;;;;;;;8.20;99.90;;;6.87;100.00;100964.78;2569912;30;137310;-42
2022/03/29 06:43:18;;;;;;;;;;;8.30;99.90;;;6.94;100.00;100970.31;2571707;30;139085;-42
2022/03/29 06:45:45;;;;;;;;;;;8.30;99.90;;;7.01;100.00;100973.09;2570579;30;137100;-42
2022/03/29 06:48:13;;;;;;;;;;;8.40;99.90;;;6.98;100.00;100966.19;2571913;30;138205;-42
2022/03/29 06:50:41;;;;;;;;;;;8.40;99.90;;;7.05;100.00;100969.84;2569230;30;137899;-43
2022/03/29 06:53:08;;;;;;;;;;;8.40;99.90;;;7.09;100.00;100964.03;2568001;30;138386;-42
2022/03/29 06:55:36;;;;;;;;;;;8.50;99.90;;;7.17;100.00;100969.41;2569469;30;138218;-42
2022/03/29 06:58:04;;;;;;;;;;;8.50;99.90;;;7.22;100.00;100972.41;2569859;30;139217;-42
2022/03/29 07:00:31;;;;;;;;;;;8.60;99.90;;;7.29;100.00;100965.19;2568310;30;137541;-42
2022/03/29 07:02:59;;;;;;;;;;;8.70;99.90;;;7.34;100.00;100961.91;2569725;30;137775;-42
2022/03/29 07:05:27;;;;;;;;;;;8.70;99.90;;;7.42;99.73;100963.66;2569214;30;137490;-41
2022/03/29 07:07:54;;;;;;;;;;;8.80;99.90;;;7.45;99.49;100964.13;2570342;30;138637;-43
2022/03/29 07:13:08;;;;;;;;;;;8.90;99.90;;;7.49;100.00;100970.88;2569329;30;136692;-41
2022/03/29 07:15:35;;;;;;;;;;;8.90;99.90;;;7.52;98.89;100964.25;2566988;30;137976;-42
2022/03/29 07:18:03;;;;;;;;;;;8.90;99.90;;;7.45;99.17;100944.31;2576378;30;137871;31
2022/03/29 07:20:30;;;;;;;;;;;8.90;99.90;;;7.67;100.00;100956.06;2568203;30;136807;-41
2022/03/29 07:22:58;;;;;;;;;;;9.10;99.90;;;7.61;99.21;100943.25;2568769;30;137817;-40
2022/03/29 07:25:31;;;;;;;;;;;9.10;99.90;;;7.77;98.95;100958.50;2568160;30;138274;-40
2022/03/29 07:27:59;;;;;;;;;;;9.10;99.90;;;7.76;97.97;100956.81;2567932;30;138033;-41
2022/03/29 07:30:27;;;;;;;;;;;9.20;99.90;;;7.86;97.86;100960.06;2567454;30;137058;-40
2022/03/29 07:32:59;;;;;;;;;;;9.20;99.90;;;7.91;98.06;100960.31;2567994;30;137048;-40
2022/03/29 07:35:28;;;;;;;;;;;9.30;99.90;;;7.92;97.19;100963.88;2567612;30;137529;-40
2022/03/29 07:37:57;;;;;;;;;;;9.30;99.90;;;8.06;98.74;100962.97;2569171;30;137220;-40
2022/03/29 07:40:27;;;;;;;;;;;9.40;99.90;;;8.18;97.96;100957.06;2568733;30;137100;-40
2022/03/29 07:42:55;;;;;;;;;;;9.50;99.90;;;8.27;96.28;100963.22;2568330;30;139066;-41
2022/03/29 07:45:22;;;;;;;;;;;9.60;99.90;;;8.37;96.57;100963.72;2566529;30;137032;-40
2022/03/29 07:47:52;;;;;;;;;;;9.70;99.90;;;8.48;95.00;100963.19;2567940;30;138237;-41
2022/03/29 07:50:40;;;;;;;;;;;9.80;99.90;;;8.55;94.59;100957.84;2567993;30;137109;-41
2022/03/29 07:53:08;;;;;;;;;;;9.80;99.90;;;8.62;93.98;100952.47;2568598;30;137265;-41
2022/03/29 07:55:40;;;;;;;;;;;9.90;99.90;;;8.78;94.16;100951.34;2568741;30;136907;-41
2022/03/29 07:58:12;;;;;;;;;;;10.00;99.90;;;8.85;92.22;100951.41;2567884;30;137444;-40
2022/03/29 08:00:40;;;;;;;;;;;10.20;99.90;;;8.97;92.43;100952.50;2569047;30;137143;-41
2022/03/29 08:03:12;;;;;;;;;;;10.20;99.90;;;9.01;91.77;100942.91;2567685;30;137394;-40
2022/03/29 08:05:41;;;;;;;;;;;10.30;99.90;;;9.02;91.03;100941.03;2567352;30;136934;-40
2022/03/29 08:08:11;;;;;;;;;;;10.40;99.90;;;9.02;93.19;100941.03;2567870;30;137642;-40
2022/03/29 08:10:39;;;;;;;;;;;10.40;99.90;;;9.12;92.50;100941.50;2566697;30;137313;-41
2022/03/29 08:13:08;;;;;;;;;;;10.50;99.90;;;9.09;90.95;100935.66;2566747;30;139415;-40
2022/03/29 08:15:39;;;;;;;;;;;10.50;99.90;;;9.19;92.36;100936.13;2568231;30;136771;-40
2022/03/29 08:18:08;;;;;;;;;;;10.50;99.90;;;9.32;91.58;100938.94;2568577;30;138063;-41
2022/03/29 08:20:39;;;;;;;;;;;10.60;99.90;;;9.39;89.32;100943.56;2566006;30;136756;-41
2022/03/29 08:23:08;;;;;;;;;;;10.70;99.90;;;9.35;89.11;100946.69;2568037;30;138922;-40
2022/03/29 08:25:37;;;;;;;;;;;10.70;99.90;;;9.27;90.30;100944.09;2565998;30;137606;-41
2022/03/29 08:28:06;;;;;;;;;;;10.70;99.90;;;9.25;89.40;100932.59;2565994;30;139375;-40
2022/03/29 08:30:35;;;;;;;;;;;10.70;99.90;;;9.30;89.79;100927.41;2567910;30;137391;-40
2022/03/29 08:33:03;;;;;;;;;;;10.70;99.90;;;9.50;90.44;100922.03;2568308;30;138062;-40
2022/03/29 08:35:32;;;;;;;;;;;10.80;99.90;;;9.49;89.74;100922.22;2569144;30;137137;-41
2022/03/29 08:38:00;;;;;;;;;;;10.90;99.90;;;9.58;90.03;100910.13;2568690;30;138344;-41
2022/03/29 08:40:49;;;;;;;;;;;10.90;99.90;;;9.60;88.19;100908.03;2566467;30;137187;-40
2022/03/29 08:43:16;;;;;;;;;;;10.90;99.90;;;9.64;89.34;100912.03;2568036;30;138064;-41
2022/03/29 08:45:48;;;;;;;;;;;11.00;99.90;;;9.69;88.54;100916.88;2568857;30;136990;-40
2022/03/29 08:48:17;;;;;;;;;;;11.00;99.90;;;9.74;88.23;100924.41;2566951;30;139068;-41
2022/03/29 08:50:45;;;;;;;;;;;11.00;99.90;;;9.58;87.08;100917.44;2567852;30;137158;-41
2022/03/29 08:53:17;;;;;;;;;;;11.00;99.90;;;9.71;88.16;100928.41;2567787;30;137419;-41
2022/03/29 08:55:45;;;;;;;;;;;11.00;99.90;;;9.54;86.72;100933.34;2567371;30;136678;-41
2022/03/29 08:58:14;;;;;;;;;;;11.00;99.90;;;9.57;87.03;100927.53;2567539;30;138836;-41
2022/03/29 09:00:44;;;;;;;;;;;11.00;99.90;;;9.45;86.86;100915.50;2567940;30;137224;-40
2022/03/29 09:03:15;;;;;;;;;;;10.90;99.90;;;9.52;87.94;100908.19;2568145;30;138923;-40
2022/03/29 09:05:43;;;;;;;;;;;10.90;99.90;;;9.54;88.65;100906.13;2568887;30;136757;-41
2022/03/29 09:08:13;;;;;;;;;;;10.90;99.90;;;9.64;89.49;100909.31;2568216;30;137716;-41
2022/03/29 09:10:48;;;;;;;;;;;10.90;99.90;;;9.43;87.32;100904.84;2567146;30;136951;-41
2022/03/29 09:13:29;;;;;;;;;;;10.90;99.90;;;9.28;87.54;100904.97;2569524;30;137185;-40
2022/03/29 09:15:59;;;;;;;;;;;10.80;99.90;;;9.33;89.30;100897.03;2568082;30;137156;-41
2022/03/29 09:18:29;;;;;;;;;;;10.80;99.90;;;9.51;90.71;100901.06;2567838;30;138891;-41
2022/03/29 09:21:08;;;;;;;;;;;10.80;99.90;;;9.54;88.92;100894.38;2568563;30;137504;-40
2022/03/29 09:23:37;;;;;;;;;;;10.90;99.90;;;9.58;89.46;100898.38;2568792;30;139280;-41
2022/03/29 09:26:05;;;;;;;;;;;10.90;99.90;;;9.56;87.59;100901.31;2568067;30;137018;-40
2022/03/29 09:28:38;;;;;;;;;;;11.00;99.90;;;9.56;87.48;100895.88;2567296;30;138070;-41
2022/03/29 09:31:22;;;;;;;;;;;11.00;99.90;;;9.64;89.41;100901.13;2568422;30;136759;-41
2022/03/29 09:33:50;;;;;;;;;;;11.00;99.90;;;9.79;89.18;100884.63;2566160;30;136831;-40
2022/03/29 09:36:21;;;;;;;;;;;11.10;99.90;;;9.81;88.04;100891.75;2569373;30;138028;-40
2022/03/29 09:38:52;;;;;;;;;;;11.20;99.90;;;9.83;86.53;100887.78;2568304;30;138316;-41
2022/03/29 09:41:20;;;;;;;;;;;11.20;99.90;;;10.01;86.55;100886.34;2569548;30;137199;-40
2022/03/29 09:44:05;;;;;;;;;;;11.30;99.90;;;9.92;87.29;100885.69;2568926;30;137122;-41
2022/03/29 09:47:02;;;;;;;;;;;11.30;99.90;;;9.93;86.58;100887.38;2569016;30;137054;-41
2022/03/29 09:49:30;;;;;;;;;;;11.40;99.90;;;10.10;87.58;100881.53;2570239;30;137113;-41
2022/03/29 09:52:11;;;;;;;;;;;11.40;99.90;;;10.25;87.02;100884.91;2568612;30;136989;-40
2022/03/29 09:54:38;;;;;;;;;;;11.50;99.90;;;10.25;84.15;100884.06;2568063;30;138248;-40
2022/03/29 09:57:06;;;;;;;;;;;11.60;99.90;;;10.46;85.54;100878.44;2567287;30;137153;-40
2022/03/29 09:59:34;;;;;;;;;;;11.70;99.90;;;10.60;83.88;100878.41;2568327;30;138986;-41
2022/03/29 10:02:03;;;;;;;;;;;11.80;99.90;;;10.42;83.87;100882.63;2568402;30;137122;-42
2022/03/29 10:04:30;;;;;;;;;;;11.80;99.90;;;10.47;85.63;100874.66;2569015;30;138376;-40
2022/03/29 10:07:04;;;;;;;;;;;11.80;99.90;;;10.38;85.70;100875.88;2568794;30;137425;-41
2022/03/29 10:09:35;;;;;;;;;;;11.80;99.90;;;10.31;83.18;100875.88;2565465;30;138310;-40
2022/03/29 10:12:08;;;;;;;;;;;11.80;99.90;;;10.39;84.33;100874.00;2568958;30;136965;-41
2022/03/29 10:14:44;;;;;;;;;;;11.80;99.90;;;10.39;84.28;100865.81;2567141;30;137976;-40
2022/03/29 10:17:13;;;;;;;;;;;11.80;99.90;;;10.46;83.83;100864.78;2566432;30;137080;-40
2022/03/29 10:19:44;;;;;;;;;;;11.80;99.90;;;10.70;83.56;100858.88;2568693;30;138286;-40
2022/03/29 10:22:13;;;;;;;;;;;11.90;99.90;;;10.74;82.68;100849.22;2567158;30;137924;-41
2022/03/29 10:24:40;;;;;;;;;;;12.00;99.90;;;10.67;82.58;100854.69;2566090;30;139435;-40
2022/03/29 10:27:09;;;;;;;;;;;12.00;99.90;;;10.80;82.53;100853.84;2568712;30;137999;-40
2022/03/29 10:29:40;;;;;;;;;;;12.10;99.90;;;10.83;83.04;100860.75;2567291;30;137426;-41
2022/03/29 10:32:08;;;;;;;;;;;12.20;99.90;;;10.90;82.18;100850.66;2567561;30;138072;-41
2022/03/29 10:34:39;;;;;;;;;;;12.20;99.90;;;10.67;82.33;100843.78;2569369;30;138267;-41
2022/03/29 10:37:09;;;;;;;;;;;12.10;99.90;;;10.89;81.14;100857.19;2568077;30;137337;-40
2022/03/29 10:39:55;;;;;;;;;;;12.20;99.90;;;10.78;81.64;100851.31;2569393;30;138819;-40
2022/03/29 10:42:38;;;;;;;;;;;12.20;99.90;;;10.93;80.50;100844.78;2568693;30;136653;-40
2022/03/29 10:45:07;;;;;;;;;;;12.20;99.90;;;10.72;81.88;100840.41;2568724;30;137304;-41
2022/03/29 10:47:58;;;;;;;;;;;12.10;99.90;;;10.43;82.00;100832.50;2567507;30;137031;-40
2022/03/29 10:50:58;;;;;;;;;;;12.00;99.90;;;10.73;84.06;100833.88;2568211;30;139230;-41
2022/03/29 10:53:46;;;;;;;;;;;12.00;99.90;;;10.75;82.94;100829.91;2567039;30;137157;-40
2022/03/29 10:56:15;;;;;;;;;;;12.10;99.90;;;10.62;81.76;100819.03;2568029;30;137188;-40
2022/03/29 10:59:01;;;;;;;;;;;12.00;99.90;;;10.68;81.02;100825.50;2568154;30;136984;-40
2022/03/29 11:01:37;;;;;;;;;;;12.10;99.90;;;10.70;81.32;100824.25;2568495;30;138370;-41
2022/03/29 11:04:17;;;;;;;;;;;12.10;99.90;;;10.71;81.86;100819.63;2566560;30;137382;-40
2022/03/29 11:07:20;;;;;;;;;;;12.00;99.90;;;10.70;81.94;100818.81;2567967;30;138346;-40
2022/03/29 11:09:48;;;;;;;;;;;12.10;99.90;;;10.68;81.89;100811.88;2567598;30;137337;-40
2022/03/29 11:12:38;;;;;;;;;;;12.10;99.90;;;10.51;81.71;100812.34;2568150;30;138600;-41
2022/03/29 11:15:24;;;;;;;;;;;12.00;99.90;;;10.57;82.37;100806.03;2568809;30;136696;-41
2022/03/29 11:17:52;;;;;;;;;;;12.00;99.90;;;10.74;83.55;100805.56;2567811;30;138305;-40
2022/03/29 11:20:52;;;;;;;;;;;12.10;99.90;;;10.68;82.26;100804.53;2566136;30;136777;-40
2022/03/29 11:23:34;;;;;;;;;;;12.00;99.90;;;10.77;81.51;100799.69;2566232;30;138730;-40
2022/03/29 11:26:14;;;;;;;;;;;12.10;99.90;;;10.91;80.84;100801.31;2569378;30;136860;-41
2022/03/29 11:28:49;;;;;;;;;;;12.20;99.90;;;10.72;80.32;100800.31;2567997;30;139028;-40